createdAt,value
2023-03-25T00:00:22.681Z,0.9
2023-03-25T00:03:24.730Z,0.7
2023-03-25T00:06:26.655Z,1.9
2023-03-25T00:09:28.590Z,1.7
2023-03-25T00:12:30.535Z,0.8
2023-03-25T00:15:32.602Z,1.9
2023-03-25T00:18:34.522Z,1.6
2023-03-25T00:21:36.454Z,0.9
2023-03-25T00:24:38.434Z,1
2023-03-25T00:27:40.450Z,1.5
2023-03-25T00:30:42.383Z,1.2
2023-03-25T00:33:44.350Z,0.9
2023-03-25T00:36:46.235Z,0.5
2023-03-25T00:39:48.229Z,0.8
2023-03-25T00:42:50.374Z,0.8
2023-03-25T00:45:52.247Z,2.2
2023-03-25T00:48:54.100Z,1.3
2023-03-25T00:51:56.086Z,1.5
2023-03-25T00:54:58.352Z,1.4
2023-03-25T00:58:00.370Z,1.7
2023-03-25T01:01:02.312Z,0.6
2023-03-25T01:04:04.308Z,2.6
2023-03-25T01:07:06.260Z,1.2
2023-03-25T01:10:08.220Z,1.5
2023-03-25T01:13:10.174Z,1.4
2023-03-25T01:16:12.177Z,1.1
2023-03-25T01:19:14.108Z,1
2023-03-25T01:22:16.047Z,1
2023-03-25T01:25:18.039Z,3.6
2023-03-25T01:28:19.977Z,1.5
2023-03-25T01:31:21.990Z,1.1
2023-03-25T01:34:23.916Z,1
2023-03-25T01:37:25.862Z,1.1
2023-03-25T01:40:27.884Z,2.5
2023-03-25T01:43:29.850Z,1
2023-03-25T01:46:31.847Z,1.1
2023-03-25T01:49:33.774Z,0.7
2023-03-25T01:52:35.781Z,0.6
2023-03-25T01:55:37.730Z,0.8
2023-03-25T01:58:39.685Z,2.1
2023-03-25T02:01:41.608Z,2.1
2023-03-25T02:04:43.577Z,0.9
2023-03-25T02:07:45.555Z,3.7
2023-03-25T02:10:47.553Z,2.4
2023-03-25T02:13:49.474Z,1.5
2023-03-25T02:16:51.467Z,2.3
2023-03-25T02:19:53.412Z,2.1
2023-03-25T02:22:55.372Z,2.5
2023-03-25T02:25:57.395Z,3.5
2023-03-25T02:28:59.322Z,2.4
2023-03-25T02:32:01.294Z,2.2
2023-03-25T02:35:03.259Z,2.4
2023-03-25T02:38:05.249Z,3
2023-03-25T02:41:07.229Z,2.8
2023-03-25T02:44:09.132Z,2.6
2023-03-25T02:47:11.103Z,1.1
2023-03-25T02:50:13.080Z,4.8
2023-03-25T02:53:15.030Z,2.1
2023-03-25T02:56:17.054Z,3.3
2023-03-25T02:59:18.982Z,4.2
2023-03-25T03:02:20.978Z,3.8
2023-03-25T03:05:22.936Z,3
2023-03-25T03:08:24.848Z,2.2
2023-03-25T03:11:26.861Z,3.1
2023-03-25T03:14:28.800Z,1.7
2023-03-25T03:17:30.793Z,2
2023-03-25T03:20:32.738Z,3.2
2023-03-25T03:23:34.690Z,2.2
2023-03-25T03:26:36.646Z,2
2023-03-25T03:29:38.651Z,2.3
2023-03-25T03:32:40.662Z,3.6
2023-03-25T03:35:42.597Z,1.1
2023-03-25T03:38:44.522Z,1.8
2023-03-25T03:41:46.482Z,2
2023-03-25T03:44:48.439Z,2.1
2023-03-25T03:47:50.402Z,1.8
2023-03-25T03:50:52.332Z,3.1
2023-03-25T03:53:54.312Z,2.3
2023-03-25T03:56:56.269Z,2.6
2023-03-25T03:59:58.235Z,3.5
2023-03-25T04:03:00.268Z,1.2
2023-03-25T04:06:02.207Z,2.7
2023-03-25T04:09:04.175Z,0.8
2023-03-25T04:12:06.123Z,1.5
2023-03-25T04:15:08.129Z,1.5
2023-03-25T04:18:10.090Z,1.6
2023-03-25T04:21:12.030Z,2.2
2023-03-25T04:24:13.979Z,0.9
2023-03-25T04:27:15.954Z,2.4
2023-03-25T04:30:17.964Z,2.1
2023-03-25T04:33:19.880Z,3.1
2023-03-25T04:36:21.840Z,2.7
2023-03-25T04:39:23.835Z,2.5
2023-03-25T04:42:25.786Z,1.2
2023-03-25T04:45:27.773Z,1.5
2023-03-25T04:48:29.902Z,3.8
2023-03-25T04:51:31.660Z,2.8
2023-03-25T04:54:33.639Z,2.5
2023-03-25T04:57:35.627Z,1.8
2023-03-25T05:00:37.606Z,2.5
2023-03-25T05:03:39.541Z,3.5
2023-03-25T05:06:41.585Z,2.4
2023-03-25T05:09:43.487Z,2.3
2023-03-25T05:12:45.422Z,3.9
2023-03-25T05:15:47.367Z,2.2
2023-03-25T05:18:49.337Z,3.8
2023-03-25T05:21:51.280Z,3.1
2023-03-25T05:24:53.294Z,1.9
2023-03-25T05:27:55.212Z,3.2
2023-03-25T05:30:57.211Z,3.2
2023-03-25T05:33:59.195Z,2.7
2023-03-25T05:37:01.152Z,3.7
2023-03-25T05:40:03.098Z,3.2
2023-03-25T05:43:05.085Z,2.4
2023-03-25T05:46:07.087Z,5
2023-03-25T05:49:09.023Z,3.1
2023-03-25T05:52:11.022Z,3.4
2023-03-25T05:55:12.949Z,3
2023-03-25T05:58:14.941Z,3
2023-03-25T06:01:25.792Z,3.7
2023-03-25T06:04:18.836Z,3.4
2023-03-25T06:07:20.787Z,3
2023-03-25T06:10:22.755Z,3
2023-03-25T06:13:24.729Z,2.1
2023-03-25T06:16:26.718Z,3.5
2023-03-25T06:19:28.691Z,2.8
2023-03-25T06:22:30.681Z,4
2023-03-25T06:25:32.643Z,2
2023-03-25T06:28:34.599Z,2.1
2023-03-25T06:31:36.676Z,2.3
2023-03-25T06:34:38.558Z,2.3
2023-03-25T06:37:40.533Z,2.7
2023-03-25T06:40:42.474Z,2.6
2023-03-25T06:43:44.439Z,1.2
2023-03-25T06:46:46.474Z,3.5
2023-03-25T06:49:48.314Z,1.8
2023-03-25T06:52:50.293Z,3.4
2023-03-25T06:55:52.419Z,2.2
2023-03-25T06:58:54.256Z,2.1
2023-03-25T07:01:56.259Z,1.5
2023-03-25T07:04:58.224Z,1.9
2023-03-25T07:08:00.147Z,2.9
2023-03-25T07:11:02.099Z,4.4
2023-03-25T07:14:04.090Z,4.9
2023-03-25T07:17:06.045Z,5
2023-03-25T07:20:09.092Z,2.6
2023-03-25T07:23:10.012Z,2.3
2023-03-25T07:26:12.005Z,4.1
2023-03-25T07:29:13.935Z,6.2
2023-03-25T07:32:15.869Z,3.4
2023-03-25T07:35:17.897Z,5
2023-03-25T07:38:19.798Z,5
2023-03-25T07:41:21.826Z,4.8
2023-03-25T07:44:23.727Z,5.3
2023-03-25T07:47:25.725Z,7.9
2023-03-25T07:50:27.730Z,4.4
2023-03-25T07:53:29.691Z,4.3
2023-03-25T07:56:31.721Z,6.8
2023-03-25T07:59:33.635Z,7.9
2023-03-25T08:02:35.596Z,5.1
2023-03-25T08:05:37.541Z,6
2023-03-25T08:08:39.512Z,5.9
2023-03-25T08:11:41.524Z,7.2
2023-03-25T08:14:43.494Z,8.2
2023-03-25T08:17:45.443Z,9.3
2023-03-25T08:20:47.408Z,7.4
2023-03-25T08:23:49.378Z,7.2
2023-03-25T08:26:51.329Z,8.6
2023-03-25T08:29:53.292Z,6.9
2023-03-25T08:32:55.301Z,6.4
2023-03-25T08:35:57.349Z,7.1
2023-03-25T08:38:59.223Z,6.1
2023-03-25T08:42:01.156Z,6.3
2023-03-25T08:45:03.128Z,7.5
2023-03-25T08:48:05.164Z,9.2
2023-03-25T08:51:07.082Z,6.1
2023-03-25T08:54:09.079Z,7.6
2023-03-25T08:57:11.086Z,6.4
2023-03-25T09:00:13.012Z,8.7
2023-03-25T09:03:14.959Z,7.5
2023-03-25T09:06:16.954Z,5.3
2023-03-25T09:09:18.881Z,10.7
2023-03-25T09:12:20.859Z,8.5
2023-03-25T09:15:22.833Z,5
2023-03-25T09:18:24.778Z,5.5
2023-03-25T09:21:26.752Z,10.4
2023-03-25T09:24:28.730Z,10.1
2023-03-25T09:27:30.677Z,8.2
2023-03-25T09:30:32.678Z,7.5
2023-03-25T09:33:34.621Z,7.6
2023-03-25T09:36:36.595Z,6.8
2023-03-25T09:39:38.562Z,6.9
2023-03-25T09:42:40.500Z,6
2023-03-25T09:45:42.507Z,6.8
2023-03-25T09:48:44.415Z,9.5
2023-03-25T09:51:46.414Z,3.5
2023-03-25T09:54:48.458Z,8.9
2023-03-25T09:57:50.361Z,4.4
2023-03-25T10:00:52.353Z,3.1
2023-03-25T10:03:54.375Z,3.3
2023-03-25T10:06:56.229Z,12.5
2023-03-25T10:09:58.218Z,2.4
2023-03-25T10:13:00.180Z,1.6
2023-03-25T10:16:02.159Z,2.9
2023-03-25T10:19:04.116Z,2.1
2023-03-25T10:22:06.076Z,4
2023-03-25T10:25:08.049Z,2.9
2023-03-25T10:28:09.994Z,2.6
2023-03-25T10:31:12.029Z,3.6
2023-03-25T10:34:13.992Z,2.4
2023-03-25T10:37:15.919Z,2.7
2023-03-25T10:40:19.157Z,2.8
2023-03-25T10:43:19.859Z,2.7
2023-03-25T10:46:21.875Z,2.8
2023-03-25T10:49:23.806Z,1.5
2023-03-25T10:52:25.742Z,2.3
2023-03-25T10:55:27.704Z,2.5
2023-03-25T10:58:29.663Z,1.1
2023-03-25T11:01:31.672Z,4
2023-03-25T11:04:33.602Z,4.8
2023-03-25T11:07:35.607Z,3.9
2023-03-25T11:10:37.553Z,7.1
2023-03-25T11:13:39.519Z,5.4
2023-03-25T11:16:41.492Z,5.3
2023-03-25T11:19:43.552Z,4.4
2023-03-25T11:22:45.448Z,4.1
2023-03-25T11:25:47.370Z,5.9
2023-03-25T11:28:49.374Z,8.3
2023-03-25T11:31:51.288Z,4.1
2023-03-25T11:34:53.293Z,5.9
2023-03-25T11:37:55.266Z,4.1
2023-03-25T11:40:57.278Z,5.5
2023-03-25T11:43:59.191Z,3.5
2023-03-25T11:47:01.199Z,2.2
2023-03-25T11:50:03.116Z,3.4
2023-03-25T11:53:05.124Z,4.7
2023-03-25T11:56:07.080Z,4.1
2023-03-25T11:59:11.822Z,2.7
2023-03-25T12:02:13.826Z,6.5
2023-03-25T12:05:15.787Z,4.6
2023-03-25T12:08:17.747Z,4.7
2023-03-25T12:11:19.757Z,3.8
2023-03-25T12:14:21.675Z,3.1
2023-03-25T12:17:23.701Z,3.7
2023-03-25T12:20:25.608Z,4.2
2023-03-25T12:23:27.626Z,12.3
2023-03-25T12:26:29.581Z,4.1
2023-03-25T12:29:31.579Z,3.6
2023-03-25T12:32:33.503Z,3.5
2023-03-25T12:35:35.525Z,2.2
2023-03-25T12:38:37.484Z,3.9
2023-03-25T12:41:39.411Z,3.2
2023-03-25T12:44:41.371Z,3.1
2023-03-25T12:47:43.615Z,2.9
2023-03-25T12:50:45.350Z,2.5
2023-03-25T12:53:47.301Z,2.8
2023-03-25T12:56:49.351Z,2.3
2023-03-25T12:59:51.320Z,2
2023-03-25T13:02:53.366Z,3.8
2023-03-25T13:05:55.384Z,2.6
2023-03-25T13:08:57.203Z,2.6
2023-03-25T13:11:59.210Z,2.2
2023-03-25T13:15:01.170Z,3
2023-03-25T13:18:03.125Z,2.7
2023-03-25T13:21:11.820Z,2.8
2023-03-25T13:24:07.093Z,4.2
2023-03-25T13:27:09.032Z,1.9
2023-03-25T13:30:11.032Z,3.7
2023-03-25T13:33:12.963Z,2.7
2023-03-25T13:36:14.956Z,3.5
2023-03-25T13:39:16.929Z,4.2
2023-03-25T13:42:18.857Z,2
2023-03-25T13:45:20.814Z,4.1
2023-03-25T13:48:22.852Z,3.9
2023-03-25T13:51:24.806Z,2.6
2023-03-25T13:54:26.782Z,2.3
2023-03-25T13:57:28.732Z,3.4
2023-03-25T14:00:30.653Z,2.3
2023-03-25T14:03:32.670Z,2
2023-03-25T14:06:34.586Z,3.4
2023-03-25T14:09:36.568Z,4.6
2023-03-25T14:12:38.537Z,4.5
2023-03-25T14:15:40.504Z,2.6
2023-03-25T14:18:42.461Z,3.8
2023-03-25T14:21:44.484Z,3.4
2023-03-25T14:24:46.408Z,3.8
2023-03-25T14:27:48.378Z,3.3
2023-03-25T14:30:50.446Z,4
2023-03-25T14:33:52.322Z,3.6
2023-03-25T14:36:54.269Z,2.7
2023-03-25T14:39:57.622Z,4.1
2023-03-25T14:42:58.316Z,2.7
2023-03-25T14:46:00.207Z,3.4
2023-03-25T14:49:02.129Z,3
2023-03-25T14:52:04.112Z,5.3
2023-03-25T14:55:06.058Z,5
2023-03-25T14:58:08.034Z,3.8
2023-03-25T15:01:09.985Z,3.3
2023-03-25T15:04:11.944Z,4.2
2023-03-25T15:07:13.914Z,3.3
2023-03-25T15:10:15.907Z,2.2
2023-03-25T15:13:17.881Z,4.1
2023-03-25T15:16:19.890Z,3.8
2023-03-25T15:19:21.793Z,3
2023-03-25T15:22:23.777Z,2.6
2023-03-25T15:25:25.712Z,4.2
2023-03-25T15:28:27.673Z,3.8
2023-03-25T15:31:29.646Z,3.2
2023-03-25T15:34:31.651Z,3
2023-03-25T15:37:45.428Z,2.1
2023-03-25T15:40:35.560Z,4.5
2023-03-25T15:43:40.817Z,2.5
2023-03-25T15:46:39.516Z,2.4
2023-03-25T15:49:41.444Z,2.8
2023-03-25T15:52:43.654Z,2.7
2023-03-25T15:55:45.414Z,2.9
2023-03-25T15:58:47.438Z,2.8
2023-03-25T16:01:49.397Z,9
2023-03-25T16:04:51.342Z,5.5
2023-03-25T16:07:53.336Z,5.2
2023-03-25T16:10:55.253Z,2.7
2023-03-25T16:13:57.233Z,4.5
2023-03-25T16:16:59.214Z,4.6
2023-03-25T16:20:01.365Z,3.4
2023-03-25T16:23:03.229Z,4.5
2023-03-25T16:26:05.213Z,4.5
2023-03-25T16:29:07.189Z,4.3
2023-03-25T16:32:09.110Z,3.5
2023-03-25T16:35:11.117Z,4.9
2023-03-25T16:38:13.254Z,3.7
2023-03-25T16:41:15.179Z,4
2023-03-25T16:44:17.167Z,5.3
2023-03-25T16:47:19.141Z,3.4
2023-03-25T16:50:21.127Z,5.3
2023-03-25T16:53:23.075Z,4.4
2023-03-25T16:56:25.072Z,3.8
2023-03-25T16:59:26.983Z,4.5
2023-03-25T17:02:29.069Z,2
2023-03-25T17:05:30.980Z,3.3
2023-03-25T17:08:32.954Z,2.5
2023-03-25T17:11:34.904Z,3.8
2023-03-25T17:14:36.935Z,3.3
2023-03-25T17:17:39.035Z,7.5
2023-03-25T17:20:41.066Z,2.7
2023-03-25T17:23:43.001Z,3.3
2023-03-25T17:26:44.966Z,3.6
2023-03-25T17:29:46.971Z,2.7
2023-03-25T17:32:48.887Z,3.4
2023-03-25T17:35:50.921Z,4.2
2023-03-25T17:38:52.900Z,2.2
2023-03-25T17:41:54.806Z,3.2
2023-03-25T17:44:56.775Z,4.3
2023-03-25T17:47:58.801Z,4.7
2023-03-25T17:51:00.786Z,4.1
2023-03-25T17:54:02.755Z,5.6
2023-03-25T17:57:04.805Z,2.8
2023-03-25T18:00:06.679Z,4
2023-03-25T18:03:08.737Z,5.9
2023-03-25T18:06:10.741Z,6.6
2023-03-25T18:09:12.788Z,3.8
2023-03-25T18:12:14.692Z,4.2
2023-03-25T18:15:16.702Z,3.3
2023-03-25T18:18:18.670Z,5.7
2023-03-25T18:21:20.659Z,3.4
2023-03-25T18:24:22.699Z,3
2023-03-25T18:27:30.638Z,3.2
2023-03-25T18:30:26.534Z,2.5
2023-03-25T18:33:28.550Z,2.6
2023-03-25T18:36:30.436Z,3.5
2023-03-25T18:39:32.514Z,3
2023-03-25T18:42:34.423Z,2.7
2023-03-25T18:45:36.405Z,1.9
2023-03-25T18:48:38.343Z,1.3
2023-03-25T18:51:40.319Z,1.6
2023-03-25T18:54:42.267Z,3.8
2023-03-25T18:57:44.228Z,3.8
2023-03-25T19:00:46.268Z,1.9
2023-03-25T19:03:48.177Z,1.1
2023-03-25T19:06:50.166Z,1.8
2023-03-25T19:09:53.487Z,2.4
2023-03-25T19:12:54.111Z,4.8
2023-03-25T19:15:56.105Z,2.7
2023-03-25T19:18:58.055Z,1.5
2023-03-25T19:22:00.060Z,3
2023-03-25T19:25:02.000Z,1.1
2023-03-25T19:28:03.985Z,1.8
2023-03-25T19:31:05.973Z,3.4
2023-03-25T19:34:07.913Z,2.8
2023-03-25T19:37:09.857Z,3.2
2023-03-25T19:40:11.861Z,2.2
2023-03-25T19:43:13.816Z,2.4
2023-03-25T19:46:15.832Z,1.5
2023-03-25T19:49:26.043Z,2.8
2023-03-25T19:52:19.725Z,1.8
2023-03-25T19:55:21.680Z,3.1
2023-03-25T19:58:23.672Z,3.1
2023-03-25T20:01:25.663Z,2.1
2023-03-25T20:04:27.578Z,2.2
2023-03-25T20:07:29.551Z,1.3
2023-03-25T20:10:31.513Z,1.9
2023-03-25T20:13:33.451Z,2.1
2023-03-25T20:16:35.447Z,2.1
2023-03-25T20:19:37.384Z,1.6
2023-03-25T20:22:39.438Z,3.4
2023-03-25T20:25:41.363Z,2.4
2023-03-25T20:28:43.384Z,2
2023-03-25T20:31:45.343Z,1.5
2023-03-25T20:34:47.320Z,2.3
2023-03-25T20:37:49.297Z,2.2
2023-03-25T20:40:51.219Z,2.1
2023-03-25T20:43:53.329Z,2.4
2023-03-25T20:46:55.166Z,1.9
2023-03-25T20:49:57.139Z,2.3
2023-03-25T20:52:59.322Z,1.9
2023-03-25T20:56:01.200Z,2.1
2023-03-25T20:59:03.184Z,2.9
2023-03-25T21:02:05.183Z,6
2023-03-25T21:05:07.094Z,2.3
2023-03-25T21:08:09.075Z,2.1
2023-03-25T21:11:11.030Z,2.9
2023-03-25T21:14:13.022Z,2.2
2023-03-25T21:17:15.190Z,1.6
2023-03-25T21:20:16.950Z,1.6
2023-03-25T21:23:18.993Z,5.1
2023-03-25T21:26:20.902Z,3.7
2023-03-25T21:29:22.885Z,3.4
2023-03-25T21:32:24.848Z,1.4
2023-03-25T21:35:26.820Z,2.5
2023-03-25T21:38:29.171Z,2.5
2023-03-25T21:41:30.723Z,3.4
2023-03-25T21:44:32.715Z,4.2
2023-03-25T21:47:34.697Z,4
2023-03-25T21:50:36.653Z,2.5
2023-03-25T21:53:38.607Z,3
2023-03-25T21:56:40.617Z,1.7
2023-03-25T21:59:42.557Z,2.6
2023-03-25T22:02:44.531Z,3.1
2023-03-25T22:05:46.476Z,2.9
2023-03-25T22:08:48.467Z,2.4
2023-03-25T22:11:50.397Z,2.4
2023-03-25T22:14:52.368Z,5.3
2023-03-25T22:17:54.379Z,3.9
2023-03-25T22:20:56.330Z,4.4
2023-03-25T22:23:58.263Z,4.8
2023-03-25T22:27:00.249Z,4.5
2023-03-25T22:30:02.251Z,3.1
2023-03-25T22:33:04.218Z,3.7
2023-03-25T22:36:06.146Z,2.9
2023-03-25T22:39:08.073Z,3.8
2023-03-25T22:42:10.057Z,5
2023-03-25T22:45:12.042Z,5.5
2023-03-25T22:48:13.992Z,4.6
2023-03-25T22:51:16.096Z,4.9
2023-03-25T22:54:17.948Z,4.3
2023-03-25T22:57:19.868Z,3.8
2023-03-25T23:00:21.839Z,2
2023-03-25T23:03:23.931Z,3.7
2023-03-25T23:06:25.933Z,4
2023-03-25T23:09:27.686Z,4.4
2023-03-25T23:12:29.669Z,3.2
2023-03-25T23:15:31.630Z,2.4
2023-03-25T23:18:33.620Z,3
2023-03-25T23:21:35.630Z,6.2
2023-03-25T23:24:37.605Z,5.2
2023-03-25T23:27:39.576Z,4.4
2023-03-25T23:30:41.569Z,2.2
2023-03-25T23:33:43.542Z,6.1
2023-03-25T23:36:45.534Z,3.2
2023-03-25T23:39:47.478Z,3.1
2023-03-25T23:42:49.430Z,2
2023-03-25T23:45:51.423Z,4
2023-03-25T23:48:53.362Z,4.1
2023-03-25T23:51:55.306Z,2.9
2023-03-25T23:54:57.265Z,5.6
2023-03-25T23:57:59.240Z,6.8
